Portada
METAR-TAF:

METAR-TAF

Aeropuertos :

Xi'an, China

Aeropuerto Internacional de Xi'an-Xianyang

latitud: 34-26N, longitud: 108-45E, altitud: 479 m

Observación

El informe se hizo hace 21 minutos, a las 01:00 UTC
Viento 4 kt del sur-suroeste, variando entre sureste y oeste
Temperatura 15°C
Humedad 67%
Presión 1025 hPa
Visibilidad: 4000 m
calima

METAR: ZLXY 270100Z 20002MPS 140V280 4000 HZ NSC 15/09 Q1025 NOSIG

Hora: 09:21 (01:21 UTC)

Pronóstico

El informe se hizo hace 6 horas y 12 minutos, a las 19:09 UTC
Pronóstico válido del 27 a las 00 UTC al 27 a las 24 UTC
Viento 6 kt del oeste-suroeste
Visibilidad: 4000 m
neblina

TAF: ZLXY 261909Z 2700/2724 24003MPS 4000 BR NSC TX24/2707Z TN09/2722Z

Observaciones y pronósticos meteorológicos de más de 4000 aeropuertos (mensajes METAR y TAF).

Los puntos amarillos y rojos representan las estaciones disponibles.

Ponga el ratón en el punto deseado para ver el nombre de la estación.

Haga clic para ver las observaciones y los pronósticos meteorológicos.

Para cambiar el mapa : haga clic en los botones verdes con una cruz de color negro para hacer un zoom, en el botón verde con un guión para alejar o en las flechas verdes para mapas adyacentes.


METAR-TAF: